createdAt,value
2018-09-01T00:01:04.588Z,38.37
2018-09-01T00:03:39.320Z,42.07
2018-09-01T00:06:14.204Z,43.30
2018-09-01T00:08:48.618Z,40.53
2018-09-01T00:11:23.460Z,43.07
2018-09-01T00:13:58.163Z,42.83
2018-09-01T00:16:32.436Z,38.17
2018-09-01T00:19:07.436Z,40.97
2018-09-01T00:21:41.911Z,36.87
2018-09-01T00:24:16.519Z,44.23
2018-09-01T00:26:51.391Z,46.07
2018-09-01T00:29:26.107Z,41.17
2018-09-01T00:32:01.479Z,42.83
2018-09-01T00:34:36.436Z,42.53
2018-09-01T00:37:11.326Z,38.80
2018-09-01T00:39:46.392Z,41.77
2018-09-01T00:42:21.276Z,37.00
2018-09-01T00:44:55.809Z,42.67
2018-09-01T00:47:30.224Z,39.13
2018-09-01T00:50:04.757Z,40.70
2018-09-01T00:52:39.578Z,44.37
2018-09-01T00:55:19.908Z,39.63
2018-09-01T00:57:54.635Z,38.07
2018-09-01T01:00:29.548Z,39.50
2018-09-01T01:03:04.452Z,39.97
2018-09-01T01:05:39.556Z,36.97
2018-09-01T01:08:14.211Z,42.40
2018-09-01T01:10:49.001Z,41.80
2018-09-01T01:13:23.725Z,43.53
2018-09-01T01:15:58.231Z,42.50
2018-09-01T01:18:32.664Z,39.93
2018-09-01T01:21:07.060Z,42.03
2018-09-01T01:23:42.103Z,36.20
2018-09-01T01:26:16.847Z,41.73
2018-09-01T01:28:51.914Z,40.30
2018-09-01T01:31:26.451Z,43.93
2018-09-01T01:34:01.047Z,40.47
2018-09-01T01:36:35.333Z,39.83
2018-09-01T01:39:10.172Z,44.87
2018-09-01T01:41:45.072Z,38.27
2018-09-01T01:44:19.588Z,42.83
2018-09-01T01:46:54.658Z,37.43
2018-09-01T01:49:29.135Z,42.57
2018-09-01T01:52:04.211Z,47.37
2018-09-01T01:54:38.883Z,41.43
2018-09-01T01:57:13.380Z,42.70
2018-09-01T01:59:47.712Z,39.80
2018-09-01T02:02:22.043Z,34.00
2018-09-01T02:04:56.855Z,35.50
2018-09-01T02:07:31.336Z,39.50
2018-09-01T02:10:06.076Z,40.60
2018-09-01T02:12:41.341Z,42.83
2018-09-01T02:15:15.851Z,39.40
2018-09-01T02:17:50.880Z,36.07
2018-09-01T02:20:25.719Z,43.17
2018-09-01T02:23:00.410Z,38.53
2018-09-01T02:25:34.992Z,38.63
2018-09-01T02:28:10.231Z,37.07
2018-09-01T02:30:44.980Z,40.53
2018-09-01T02:33:19.765Z,36.53
2018-09-01T02:35:54.115Z,40.93
2018-09-01T02:38:28.759Z,39.40
2018-09-01T02:41:03.932Z,40.33
2018-09-01T02:43:38.215Z,38.90
2018-09-01T02:46:13.552Z,34.13
2018-09-01T02:48:48.300Z,35.73
2018-09-01T02:51:22.991Z,35.70
2018-09-01T02:53:57.451Z,34.87
2018-09-01T02:56:32.775Z,35.67
2018-09-01T02:59:07.639Z,33.47
2018-09-01T03:01:42.692Z,36.97
2018-09-01T03:04:17.587Z,37.70
2018-09-01T03:06:59.660Z,35.80
2018-09-01T03:09:34.055Z,35.60
2018-09-01T03:12:08.498Z,38.87
2018-09-01T03:14:44.125Z,35.37
2018-09-01T03:17:18.519Z,33.77
2018-09-01T03:19:53.224Z,34.93
2018-09-01T03:22:27.854Z,33.73
2018-09-01T03:25:02.425Z,33.63
2018-09-01T03:27:37.175Z,32.17
2018-09-01T03:30:11.957Z,32.20
2018-09-01T03:32:46.967Z,31.90
2018-09-01T03:35:21.563Z,32.37
2018-09-01T03:37:56.166Z,30.20
2018-09-01T03:40:31.312Z,29.30
2018-09-01T03:43:06.108Z,32.03
2018-09-01T03:45:40.854Z,34.10
2018-09-01T03:48:15.203Z,30.50
2018-09-01T03:50:50.113Z,31.60
2018-09-01T03:53:25.011Z,32.93
2018-09-01T03:55:59.988Z,32.17
2018-09-01T03:58:34.578Z,34.43
2018-09-01T04:01:09.379Z,33.93
2018-09-01T04:03:43.761Z,30.97
2018-09-01T04:06:18.748Z,31.20
2018-09-01T04:08:53.330Z,31.63
2018-09-01T04:11:27.660Z,32.37
2018-09-01T04:14:02.687Z,34.63
2018-09-01T04:16:37.356Z,32.43
2018-09-01T04:19:16.578Z,34.23
2018-09-01T04:21:52.169Z,32.07
2018-09-01T04:24:27.083Z,33.50
2018-09-01T04:27:01.599Z,33.70
2018-09-01T04:29:36.349Z,33.23
2018-09-01T04:32:10.969Z,35.33
2018-09-01T04:34:45.673Z,36.03
2018-09-01T04:37:20.287Z,34.20
2018-09-01T04:39:55.016Z,36.63
2018-09-01T04:42:29.864Z,33.60
2018-09-01T04:45:05.255Z,34.87
2018-09-01T04:47:39.711Z,34.57
2018-09-01T04:50:15.020Z,31.37
2018-09-01T04:52:49.749Z,33.37
2018-09-01T04:55:24.772Z,34.13
2018-09-01T04:57:59.295Z,34.73
2018-09-01T05:00:33.800Z,32.37
2018-09-01T05:03:08.655Z,34.40
2018-09-01T05:05:43.363Z,31.53
2018-09-01T05:08:18.095Z,31.20
2018-09-01T05:10:53.136Z,34.77
2018-09-01T05:13:27.835Z,33.17
2018-09-01T05:16:02.580Z,34.10
2018-09-01T05:18:37.575Z,32.87
2018-09-01T05:21:12.566Z,33.67
2018-09-01T05:23:47.803Z,33.20
2018-09-01T05:26:22.755Z,31.07
2018-09-01T05:28:57.370Z,31.63
2018-09-01T05:31:32.568Z,30.67
2018-09-01T05:34:07.096Z,31.60
2018-09-01T05:36:41.666Z,29.67
2018-09-01T05:39:17.024Z,29.10
2018-09-01T05:41:51.375Z,27.53
2018-09-01T05:44:26.056Z,29.13
2018-09-01T05:47:00.438Z,27.63
2018-09-01T05:49:35.043Z,27.47
2018-09-01T05:52:09.380Z,27.27
2018-09-01T05:54:43.856Z,29.23
2018-09-01T05:57:18.217Z,30.23
2018-09-01T05:59:53.409Z,28.60
2018-09-01T06:02:27.906Z,29.83
2018-09-01T06:05:02.228Z,29.03
2018-09-01T06:07:36.881Z,27.63
2018-09-01T06:10:12.139Z,28.57
2018-09-01T06:12:46.663Z,29.53
2018-09-01T06:15:21.536Z,26.43
2018-09-01T06:17:56.249Z,26.57
2018-09-01T06:20:30.959Z,25.10
2018-09-01T06:23:05.851Z,24.80
2018-09-01T06:25:40.198Z,28.70
2018-09-01T06:28:18.076Z,27.57
2018-09-01T06:30:53.711Z,21.80
2018-09-01T06:33:28.539Z,21.43
2018-09-01T06:36:05.612Z,23.80
2018-09-01T06:38:40.244Z,24.03
2018-09-01T06:41:14.712Z,23.17
2018-09-01T06:43:49.640Z,20.87
2018-09-01T06:46:24.011Z,22.43
2018-09-01T06:48:58.699Z,20.10
2018-09-01T06:51:33.178Z,20.83
2018-09-01T06:54:08.283Z,19.70
2018-09-01T06:56:43.240Z,17.50
2018-09-01T06:59:17.816Z,21.00
2018-09-01T07:01:52.326Z,17.50
2018-09-01T07:04:26.851Z,16.97
2018-09-01T07:07:01.652Z,17.20
2018-09-01T07:09:36.174Z,17.23
2018-09-01T07:12:11.013Z,16.37
2018-09-01T07:14:45.694Z,16.43
2018-09-01T07:17:20.103Z,16.50
2018-09-01T07:19:54.552Z,16.33
2018-09-01T07:22:29.215Z,15.27
2018-09-01T07:25:03.672Z,14.43
2018-09-01T07:27:38.440Z,14.90
2018-09-01T07:30:13.132Z,13.57
2018-09-01T07:32:47.666Z,13.70
2018-09-01T07:35:22.704Z,14.53
2018-09-01T07:37:57.311Z,13.00
2018-09-01T07:40:31.915Z,13.53
2018-09-01T07:43:06.946Z,13.47
2018-09-01T07:45:41.684Z,11.80
2018-09-01T07:48:16.178Z,11.77
2018-09-01T07:50:50.712Z,12.67
2018-09-01T07:53:25.463Z,12.67
2018-09-01T07:56:00.345Z,12.83
2018-09-01T07:58:35.108Z,13.27
2018-09-01T08:01:10.206Z,13.67
2018-09-01T08:03:45.012Z,12.53
2018-09-01T08:06:19.680Z,11.13
2018-09-01T08:08:54.096Z,12.33
2018-09-01T08:11:42.380Z,11.23
2018-09-01T08:14:17.276Z,13.57
2018-09-01T08:16:52.764Z,12.40
2018-09-01T08:19:27.340Z,11.23
2018-09-01T08:22:02.411Z,13.73
2018-09-01T08:24:37.855Z,13.17
2018-09-01T08:27:12.745Z,15.13
2018-09-01T08:29:47.188Z,16.07
2018-09-01T08:32:21.900Z,13.50
2018-09-01T08:34:56.647Z,13.33
2018-09-01T08:37:31.192Z,14.00
2018-09-01T08:40:05.990Z,14.00
2018-09-01T08:42:40.884Z,14.37
2018-09-01T08:45:15.988Z,15.77
2018-09-01T08:47:50.868Z,17.77
2018-09-01T08:50:25.418Z,17.83
2018-09-01T08:53:00.102Z,15.63
2018-09-01T08:55:34.557Z,18.53
2018-09-01T08:58:08.988Z,14.63
2018-09-01T09:00:43.579Z,15.10
2018-09-01T09:03:18.531Z,15.87
2018-09-01T09:05:53.063Z,15.83
2018-09-01T09:08:27.878Z,16.87
2018-09-01T09:11:03.475Z,17.90
2018-09-01T09:13:39.027Z,15.47
2018-09-01T09:16:14.616Z,14.37
2018-09-01T09:18:50.016Z,15.23
2018-09-01T09:21:24.848Z,14.57
2018-09-01T09:23:59.291Z,15.53
2018-09-01T09:26:34.291Z,13.63
2018-09-01T09:29:08.903Z,15.20
2018-09-01T09:31:43.415Z,15.17
2018-09-01T09:34:17.855Z,15.37
2018-09-01T09:36:52.683Z,14.80
2018-09-01T09:39:27.635Z,14.77
2018-09-01T09:42:02.393Z,17.67
2018-09-01T09:44:37.608Z,17.00
2018-09-01T09:47:12.177Z,16.67
2018-09-01T09:49:46.770Z,18.20
2018-09-01T09:52:21.056Z,16.97
2018-09-01T09:54:56.751Z,16.00
2018-09-01T09:57:32.343Z,16.03
2018-09-01T10:00:07.423Z,14.53
2018-09-01T10:02:41.735Z,14.37
2018-09-01T10:05:18.239Z,14.27
2018-09-01T10:07:58.059Z,14.03
2018-09-01T10:10:32.524Z,17.40
2018-09-01T10:13:06.963Z,12.93
2018-09-01T10:15:41.413Z,13.43
2018-09-01T10:18:16.315Z,12.10
2018-09-01T10:20:50.895Z,11.10
2018-09-01T10:23:25.535Z,10.73
2018-09-01T10:25:59.929Z,10.40
2018-09-01T10:28:35.035Z,12.30
2018-09-01T10:31:10.555Z,11.83
2018-09-01T10:33:45.236Z,10.50
2018-09-01T10:36:19.850Z,10.20
2018-09-01T10:38:54.560Z,12.10
2018-09-01T10:41:29.280Z,11.53
2018-09-01T10:44:04.535Z,13.00
2018-09-01T10:46:39.166Z,11.70
2018-09-01T10:49:14.007Z,14.37
2018-09-01T10:51:48.324Z,12.30
2018-09-01T10:54:22.828Z,10.93
2018-09-01T10:56:57.204Z,14.93
2018-09-01T10:59:31.853Z,13.43
2018-09-01T11:02:07.364Z,13.90
2018-09-01T11:04:41.858Z,12.50
2018-09-01T11:07:16.369Z,12.67
2018-09-01T11:09:51.064Z,29.20
2018-09-01T11:12:25.643Z,13.03
2018-09-01T11:15:00.348Z,11.50
2018-09-01T11:17:34.832Z,10.53
2018-09-01T11:20:10.218Z,12.23
2018-09-01T11:22:45.170Z,12.70
2018-09-01T11:25:19.619Z,11.60
2018-09-01T11:27:54.665Z,9.47
2018-09-01T11:30:29.497Z,10.33
2018-09-01T11:33:04.627Z,9.33
2018-09-01T11:35:39.940Z,12.27
2018-09-01T11:38:14.796Z,10.70
2018-09-01T11:40:49.287Z,11.70
2018-09-01T11:43:23.694Z,11.47
2018-09-01T11:45:58.389Z,12.40
2018-09-01T11:48:33.125Z,15.43
2018-09-01T11:51:07.935Z,10.93
2018-09-01T11:53:42.673Z,12.23
2018-09-01T11:56:17.242Z,11.60
2018-09-01T11:58:52.621Z,12.23
2018-09-01T12:01:27.987Z,12.20
2018-09-01T12:04:02.632Z,14.40
2018-09-01T12:06:37.370Z,11.70
2018-09-01T12:09:12.027Z,12.33
2018-09-01T12:11:47.058Z,10.37
2018-09-01T12:14:21.687Z,8.93
2018-09-01T12:16:56.094Z,8.10
2018-09-01T12:19:31.216Z,9.10
2018-09-01T12:22:06.232Z,9.53
2018-09-01T12:24:41.001Z,9.60
2018-09-01T12:27:15.620Z,8.13
2018-09-01T12:29:50.212Z,9.23
2018-09-01T12:32:24.584Z,8.43
2018-09-01T12:34:59.590Z,13.20
2018-09-01T12:37:34.091Z,12.07
2018-09-01T12:40:09.055Z,9.80
2018-09-01T12:42:43.405Z,10.57
2018-09-01T12:45:17.900Z,11.23
2018-09-01T12:47:52.453Z,12.10
2018-09-01T12:50:26.944Z,11.67
2018-09-01T12:53:01.424Z,13.67
2018-09-01T12:55:36.044Z,11.90
2018-09-01T12:58:10.519Z,10.03
2018-09-01T13:00:45.425Z,10.80
2018-09-01T13:03:20.512Z,10.37
2018-09-01T13:05:55.094Z,11.53
2018-09-01T13:08:29.516Z,11.50
2018-09-01T13:11:04.516Z,13.07
2018-09-01T13:13:39.316Z,9.20
2018-09-01T13:16:14.948Z,9.33
2018-09-01T13:18:49.399Z,9.37
2018-09-01T13:21:23.862Z,8.83
2018-09-01T13:23:58.160Z,9.40
2018-09-01T13:26:32.573Z,8.57
2018-09-01T13:29:07.595Z,8.67
2018-09-01T13:31:42.319Z,8.60
2018-09-01T13:34:16.917Z,9.60
2018-09-01T13:36:52.063Z,8.70
2018-09-01T13:39:26.827Z,9.53
2018-09-01T13:42:01.355Z,9.67
2018-09-01T13:44:36.140Z,10.63
2018-09-01T13:47:10.876Z,11.07
2018-09-01T13:49:45.711Z,14.83
2018-09-01T13:52:20.428Z,13.87
2018-09-01T13:54:55.098Z,12.73
2018-09-01T13:57:29.764Z,11.67
2018-09-01T14:00:06.756Z,12.90
2018-09-01T14:02:41.660Z,13.03
2018-09-01T14:05:16.476Z,11.97
2018-09-01T14:07:51.261Z,14.67
2018-09-01T14:10:26.307Z,13.17
2018-09-01T14:13:00.744Z,13.40
2018-09-01T14:15:35.437Z,14.10
2018-09-01T14:18:10.079Z,13.13
2018-09-01T14:20:44.938Z,14.30
2018-09-01T14:23:19.556Z,12.70
2018-09-01T14:25:54.016Z,14.93
2018-09-01T14:28:28.748Z,14.60
2018-09-01T14:31:03.243Z,15.67
2018-09-01T14:33:37.694Z,14.33
2018-09-01T14:36:12.053Z,16.60
2018-09-01T14:38:46.576Z,13.57
2018-09-01T14:41:21.161Z,16.23
2018-09-01T14:43:55.579Z,13.53
2018-09-01T14:46:30.766Z,13.23
2018-09-01T14:49:06.316Z,13.43
2018-09-01T14:51:41.332Z,15.03
2018-09-01T14:54:15.732Z,13.30
2018-09-01T14:56:50.088Z,14.97
2018-09-01T14:59:24.709Z,14.63
2018-09-01T15:01:59.444Z,14.90
2018-09-01T15:04:34.347Z,16.83
2018-09-01T15:07:09.061Z,15.57
2018-09-01T15:09:43.975Z,16.53
2018-09-01T15:12:18.663Z,13.93
2018-09-01T15:14:53.444Z,14.03
2018-09-01T15:17:28.412Z,13.50
2018-09-01T15:20:04.025Z,13.30
2018-09-01T15:22:38.551Z,14.20
2018-09-01T15:25:13.800Z,12.33
2018-09-01T15:27:48.272Z,13.93
2018-09-01T15:30:22.682Z,14.87
2018-09-01T15:32:57.715Z,13.87
2018-09-01T15:35:32.470Z,12.97
2018-09-01T15:38:08.186Z,14.50
2018-09-01T15:40:42.719Z,12.70
2018-09-01T15:43:17.388Z,11.70
2018-09-01T15:45:51.903Z,15.40
2018-09-01T15:48:26.184Z,15.87
2018-09-01T15:51:01.074Z,12.97
2018-09-01T15:53:36.020Z,13.30
2018-09-01T15:56:10.670Z,15.57
2018-09-01T15:58:45.415Z,12.63
2018-09-01T16:01:19.963Z,15.40
2018-09-01T16:03:54.371Z,11.70
2018-09-01T16:06:28.835Z,12.57
2018-09-01T16:09:04.707Z,16.90
2018-09-01T16:11:39.267Z,14.00
2018-09-01T16:14:13.940Z,14.33
2018-09-01T16:16:48.503Z,13.83
2018-09-01T16:19:23.363Z,13.90
2018-09-01T16:21:58.156Z,15.57
2018-09-01T16:24:32.715Z,15.97
2018-09-01T16:27:07.755Z,12.43
2018-09-01T16:29:42.105Z,15.63
2018-09-01T16:34:57.384Z,12.50
2018-09-01T16:37:32.142Z,16.50
2018-09-01T16:40:06.930Z,13.57
2018-09-01T16:42:41.792Z,15.17
2018-09-01T16:45:16.284Z,15.87
2018-09-01T16:47:50.854Z,12.97
2018-09-01T16:50:25.899Z,16.53
2018-09-01T16:53:00.332Z,14.70
2018-09-01T16:55:34.678Z,16.30
2018-09-01T16:58:09.400Z,16.00
2018-09-01T17:00:44.187Z,12.33
2018-09-01T17:03:18.968Z,15.47
2018-09-01T17:05:53.387Z,12.77
2018-09-01T17:08:28.215Z,15.53
2018-09-01T17:11:03.814Z,13.93
2018-09-01T17:13:38.574Z,11.70
2018-09-01T17:16:13.415Z,17.43
2018-09-01T17:18:51.920Z,11.27
2018-09-01T17:21:26.261Z,14.27
2018-09-01T17:24:00.700Z,11.47
2018-09-01T17:26:35.071Z,15.37
2018-09-01T17:29:09.372Z,12.70
2018-09-01T17:31:44.355Z,13.57
2018-09-01T17:34:18.995Z,12.17
2018-09-01T17:36:53.640Z,13.53
2018-09-01T17:39:28.144Z,13.57
2018-09-01T17:42:02.675Z,10.67
2018-09-01T17:44:37.326Z,14.80
2018-09-01T17:47:11.943Z,12.30
2018-09-01T17:49:46.256Z,13.50
2018-09-01T17:52:20.931Z,12.73
2018-09-01T17:54:55.444Z,17.30
2018-09-01T17:57:30.396Z,13.00
2018-09-01T18:00:05.287Z,12.63
2018-09-01T18:02:39.778Z,11.60
2018-09-01T18:05:15.499Z,14.10
2018-09-01T18:07:50.136Z,13.53
2018-09-01T18:10:25.096Z,14.67
2018-09-01T18:13:00.263Z,14.37
2018-09-01T18:15:35.375Z,15.10
2018-09-01T18:18:09.928Z,10.77
2018-09-01T18:20:44.932Z,15.80
2018-09-01T18:23:19.480Z,16.47
2018-09-01T18:25:53.776Z,13.80
2018-09-01T18:28:28.263Z,14.80
2018-09-01T18:31:02.750Z,15.90
2018-09-01T18:33:37.230Z,14.77
2018-09-01T18:36:11.722Z,13.10
2018-09-01T18:38:46.951Z,15.83
2018-09-01T18:41:22.099Z,16.03
2018-09-01T18:43:56.742Z,16.10
2018-09-01T18:46:31.659Z,16.40
2018-09-01T18:49:07.881Z,15.80
2018-09-01T18:51:43.256Z,15.83
2018-09-01T18:54:18.089Z,15.27
2018-09-01T18:56:52.921Z,17.00
2018-09-01T18:59:27.409Z,19.33
2018-09-01T19:02:01.756Z,24.73
2018-09-01T19:04:36.089Z,19.47
2018-09-01T19:07:11.119Z,18.53
2018-09-01T19:09:45.627Z,18.00
2018-09-01T19:12:20.770Z,19.93
2018-09-01T19:14:56.018Z,20.13
2018-09-01T19:17:30.329Z,18.93
2018-09-01T19:20:05.297Z,20.10
2018-09-01T19:22:39.842Z,18.27
2018-09-01T19:25:14.756Z,18.17
2018-09-01T19:27:49.486Z,17.00
2018-09-01T19:30:23.879Z,19.87
2018-09-01T19:32:58.694Z,18.00
2018-09-01T19:35:33.583Z,17.63
2018-09-01T19:38:07.875Z,18.23
2018-09-01T19:40:42.643Z,18.93
2018-09-01T19:43:17.399Z,19.03
2018-09-01T19:45:52.544Z,18.83
2018-09-01T19:48:27.469Z,21.30
2018-09-01T19:51:02.091Z,18.80
2018-09-01T19:53:36.950Z,20.90
2018-09-01T19:56:11.387Z,22.67
2018-09-01T19:58:45.807Z,23.60
2018-09-01T20:01:20.300Z,19.57
2018-09-01T20:03:55.403Z,21.37
2018-09-01T20:06:30.339Z,24.80
2018-09-01T20:09:05.754Z,26.23
2018-09-01T20:11:40.132Z,23.47
2018-09-01T20:14:15.191Z,26.53
2018-09-01T20:16:51.083Z,22.23
2018-09-01T20:19:26.193Z,26.93
2018-09-01T20:22:00.852Z,28.07
2018-09-01T20:24:35.308Z,20.40
2018-09-01T20:27:10.568Z,27.00
2018-09-01T20:29:45.395Z,21.83
2018-09-01T20:32:20.216Z,23.70
2018-09-01T20:34:58.836Z,21.17
2018-09-01T20:37:33.508Z,23.90
2018-09-01T20:40:08.144Z,23.43
2018-09-01T20:42:42.882Z,18.37
2018-09-01T20:45:18.091Z,20.27
2018-09-01T20:47:52.895Z,18.80
2018-09-01T20:50:27.864Z,18.07
2018-09-01T20:53:02.323Z,20.90
2018-09-01T20:55:42.587Z,19.10
2018-09-01T20:58:17.245Z,22.27
2018-09-01T21:00:52.103Z,21.70
2018-09-01T21:03:26.858Z,19.10
2018-09-01T21:06:01.432Z,20.90
2018-09-01T21:08:36.218Z,21.27
2018-09-01T21:11:10.850Z,19.60
2018-09-01T21:13:45.175Z,24.87
2018-09-01T21:16:20.023Z,18.93
2018-09-01T21:18:55.254Z,17.90
2018-09-01T21:21:29.658Z,24.20
2018-09-01T21:24:04.439Z,20.00
2018-09-01T21:26:39.143Z,21.17
2018-09-01T21:29:14.035Z,19.13
2018-09-01T21:31:48.800Z,18.37
2018-09-01T21:34:23.244Z,22.07
2018-09-01T21:36:58.275Z,21.10
2018-09-01T21:39:32.979Z,20.70
2018-09-01T21:42:07.980Z,21.00
2018-09-01T21:44:42.274Z,18.87
2018-09-01T21:47:17.047Z,21.70
2018-09-01T21:49:52.452Z,21.70
2018-09-01T21:52:27.050Z,24.70
2018-09-01T21:55:02.179Z,19.90
2018-09-01T21:57:36.935Z,19.97
2018-09-01T22:00:11.372Z,18.60
2018-09-01T22:02:45.973Z,18.63
2018-09-01T22:05:21.123Z,18.63
2018-09-01T22:07:55.563Z,20.70
2018-09-01T22:10:30.355Z,17.30
2018-09-01T22:13:05.179Z,20.03
2018-09-01T22:15:39.727Z,18.93
2018-09-01T22:18:14.999Z,18.50
2018-09-01T22:20:49.691Z,17.73
2018-09-01T22:23:24.310Z,16.33
2018-09-01T22:25:58.730Z,17.07
2018-09-01T22:28:33.892Z,16.17
2018-09-01T22:31:09.801Z,16.70
2018-09-01T22:33:45.556Z,16.27
2018-09-01T22:36:20.303Z,16.80
2018-09-01T22:38:54.796Z,14.97
2018-09-01T22:41:29.551Z,15.90
2018-09-01T22:44:04.016Z,14.70
2018-09-01T22:46:39.351Z,13.57
2018-09-01T22:49:14.031Z,13.50
2018-09-01T22:51:48.749Z,13.57
2018-09-01T22:54:23.855Z,13.67
2018-09-01T22:56:58.963Z,14.10
2018-09-01T22:59:33.343Z,14.27
2018-09-01T23:02:08.536Z,14.43
2018-09-01T23:04:43.207Z,14.10
2018-09-01T23:07:18.011Z,14.83
2018-09-01T23:09:52.779Z,15.30
2018-09-01T23:12:27.170Z,13.97
2018-09-01T23:15:01.629Z,14.00
2018-09-01T23:17:36.095Z,14.50
2018-09-01T23:20:11.261Z,15.37
2018-09-01T23:22:46.037Z,14.70
2018-09-01T23:25:20.793Z,15.87
2018-09-01T23:27:55.874Z,15.63
2018-09-01T23:30:30.343Z,18.07
2018-09-01T23:33:05.363Z,15.57
2018-09-01T23:35:39.919Z,15.43
2018-09-01T23:38:14.948Z,16.20
2018-09-01T23:40:50.022Z,15.03
2018-09-01T23:43:25.120Z,14.67
2018-09-01T23:45:59.599Z,14.43
2018-09-01T23:48:34.111Z,15.30
2018-09-01T23:51:08.791Z,14.80
2018-09-01T23:53:43.726Z,14.53
2018-09-01T23:56:18.888Z,14.03
2018-09-01T23:58:53.735Z,14.70
